sensor_id;sensor_type;location;lat;lon;timestamp;P1;durP1;ratioP1;P2;durP2;ratioP2
26656;SDS011;14279;50.010;8.260;2023-06-05T00:01:54;2.33;;;1.60;;
26656;SDS011;14279;50.010;8.260;2023-06-05T00:04:19;2.70;;;1.63;;
26656;SDS011;14279;50.010;8.260;2023-06-05T00:06:46;6.20;;;1.63;;
26656;SDS011;14279;50.010;8.260;2023-06-05T00:09:11;4.83;;;1.70;;
26656;SDS011;14279;50.010;8.260;2023-06-05T00:11:38;10.63;;;2.23;;
26656;SDS011;14279;50.010;8.260;2023-06-05T00:14:03;2.57;;;1.60;;
26656;SDS011;14279;50.010;8.260;2023-06-05T00:16:30;7.77;;;1.67;;
26656;SDS011;14279;50.010;8.260;2023-06-05T00:18:55;7.13;;;1.57;;
26656;SDS011;14279;50.010;8.260;2023-06-05T00:21:21;16.33;;;2.10;;
26656;SDS011;14279;50.010;8.260;2023-06-05T00:23:47;4.60;;;1.20;;
26656;SDS011;14279;50.010;8.260;2023-06-05T00:26:12;4.93;;;1.63;;
26656;SDS011;14279;50.010;8.260;2023-06-05T00:28:37;5.07;;;1.80;;
26656;SDS011;14279;50.010;8.260;2023-06-05T00:31:04;16.20;;;2.10;;
26656;SDS011;14279;50.010;8.260;2023-06-05T00:33:29;8.57;;;1.73;;
26656;SDS011;14279;50.010;8.260;2023-06-05T00:35:55;6.50;;;1.93;;
26656;SDS011;14279;50.010;8.260;2023-06-05T00:38:21;4.53;;;1.80;;
26656;SDS011;14279;50.010;8.260;2023-06-05T00:40:46;3.43;;;1.60;;
26656;SDS011;14279;50.010;8.260;2023-06-05T00:43:11;3.87;;;2.00;;
26656;SDS011;14279;50.010;8.260;2023-06-05T00:45:37;1.83;;;1.57;;
26656;SDS011;14279;50.010;8.260;2023-06-05T00:48:02;3.23;;;1.40;;
26656;SDS011;14279;50.010;8.260;2023-06-05T00:50:28;6.93;;;1.73;;
26656;SDS011;14279;50.010;8.260;2023-06-05T00:52:56;3.13;;;1.93;;
26656;SDS011;14279;50.010;8.260;2023-06-05T00:55:21;6.57;;;2.00;;
26656;SDS011;14279;50.010;8.260;2023-06-05T00:57:47;9.50;;;2.30;;
26656;SDS011;14279;50.010;8.260;2023-06-05T01:00:13;7.67;;;2.03;;
26656;SDS011;14279;50.010;8.260;2023-06-05T01:02:39;5.30;;;2.13;;
26656;SDS011;14279;50.010;8.260;2023-06-05T01:05:05;3.87;;;2.63;;
26656;SDS011;14279;50.010;8.260;2023-06-05T01:07:35;6.43;;;1.80;;
26656;SDS011;14279;50.010;8.260;2023-06-05T01:10:03;6.40;;;2.60;;
26656;SDS011;14279;50.010;8.260;2023-06-05T01:12:33;9.87;;;2.17;;
26656;SDS011;14279;50.010;8.260;2023-06-05T01:15:03;5.97;;;1.90;;
26656;SDS011;14279;50.010;8.260;2023-06-05T01:17:31;5.37;;;2.37;;
26656;SDS011;14279;50.010;8.260;2023-06-05T01:19:59;4.70;;;2.60;;
26656;SDS011;14279;50.010;8.260;2023-06-05T01:22:33;5.80;;;2.10;;
26656;SDS011;14279;50.010;8.260;2023-06-05T01:24:59;13.83;;;2.07;;
26656;SDS011;14279;50.010;8.260;2023-06-05T01:28:00;7.03;;;1.90;;
26656;SDS011;14279;50.010;8.260;2023-06-05T01:32:56;3.60;;;1.73;;
26656;SDS011;14279;50.010;8.260;2023-06-05T01:35:27;6.20;;;1.80;;
26656;SDS011;14279;50.010;8.260;2023-06-05T01:37:58;5.37;;;1.60;;
26656;SDS011;14279;50.010;8.260;2023-06-05T01:40:25;5.10;;;1.90;;
26656;SDS011;14279;50.010;8.260;2023-06-05T01:42:51;5.23;;;2.17;;
26656;SDS011;14279;50.010;8.260;2023-06-05T01:45:18;3.30;;;2.30;;
26656;SDS011;14279;50.010;8.260;2023-06-05T01:47:44;12.67;;;2.10;;
26656;SDS011;14279;50.010;8.260;2023-06-05T01:50:13;7.57;;;2.40;;
26656;SDS011;14279;50.010;8.260;2023-06-05T01:52:39;2.90;;;2.30;;
26656;SDS011;14279;50.010;8.260;2023-06-05T01:55:13;6.00;;;1.90;;
26656;SDS011;14279;50.010;8.260;2023-06-05T01:57:41;6.23;;;1.83;;
26656;SDS011;14279;50.010;8.260;2023-06-05T02:00:07;7.57;;;2.50;;
26656;SDS011;14279;50.010;8.260;2023-06-05T02:02:41;8.43;;;2.07;;
26656;SDS011;14279;50.010;8.260;2023-06-05T02:05:08;10.83;;;2.60;;
26656;SDS011;14279;50.010;8.260;2023-06-05T02:07:36;4.53;;;2.07;;
26656;SDS011;14279;50.010;8.260;2023-06-05T02:10:03;6.30;;;2.30;;
26656;SDS011;14279;50.010;8.260;2023-06-05T02:12:30;6.93;;;2.40;;
26656;SDS011;14279;50.010;8.260;2023-06-05T02:14:57;11.40;;;2.33;;
26656;SDS011;14279;50.010;8.260;2023-06-05T02:17:22;12.90;;;2.67;;
26656;SDS011;14279;50.010;8.260;2023-06-05T02:19:49;11.30;;;2.77;;
26656;SDS011;14279;50.010;8.260;2023-06-05T02:22:15;11.90;;;2.80;;
26656;SDS011;14279;50.010;8.260;2023-06-05T02:24:40;49.47;;;3.70;;
26656;SDS011;14279;50.010;8.260;2023-06-05T02:27:05;16.87;;;3.00;;
26656;SDS011;14279;50.010;8.260;2023-06-05T02:29:33;14.63;;;2.50;;
26656;SDS011;14279;50.010;8.260;2023-06-05T02:31:58;11.10;;;2.40;;
26656;SDS011;14279;50.010;8.260;2023-06-05T02:34:23;12.70;;;3.03;;
26656;SDS011;14279;50.010;8.260;2023-06-05T02:36:49;4.10;;;2.23;;
26656;SDS011;14279;50.010;8.260;2023-06-05T02:39:15;11.10;;;2.53;;
26656;SDS011;14279;50.010;8.260;2023-06-05T02:41:41;8.60;;;2.30;;
26656;SDS011;14279;50.010;8.260;2023-06-05T02:44:07;6.87;;;3.17;;
26656;SDS011;14279;50.010;8.260;2023-06-05T02:46:32;6.33;;;2.63;;
26656;SDS011;14279;50.010;8.260;2023-06-05T02:48:58;3.50;;;2.10;;
26656;SDS011;14279;50.010;8.260;2023-06-05T02:51:23;18.03;;;2.90;;
26656;SDS011;14279;50.010;8.260;2023-06-05T02:53:48;13.33;;;2.67;;
26656;SDS011;14279;50.010;8.260;2023-06-05T02:56:13;4.47;;;2.17;;
26656;SDS011;14279;50.010;8.260;2023-06-05T02:58:39;4.97;;;2.40;;
26656;SDS011;14279;50.010;8.260;2023-06-05T03:01:08;7.13;;;2.37;;
26656;SDS011;14279;50.010;8.260;2023-06-05T03:03:35;4.60;;;1.93;;
26656;SDS011;14279;50.010;8.260;2023-06-05T03:06:01;7.87;;;2.70;;
26656;SDS011;14279;50.010;8.260;2023-06-05T03:08:35;2.20;;;1.87;;
26656;SDS011;14279;50.010;8.260;2023-06-05T03:11:02;3.80;;;2.40;;
26656;SDS011;14279;50.010;8.260;2023-06-05T03:13:28;4.30;;;2.47;;
26656;SDS011;14279;50.010;8.260;2023-06-05T03:15:54;3.40;;;2.03;;
26656;SDS011;14279;50.010;8.260;2023-06-05T03:18:22;4.20;;;2.40;;
26656;SDS011;14279;50.010;8.260;2023-06-05T03:20:48;2.30;;;2.10;;
26656;SDS011;14279;50.010;8.260;2023-06-05T03:23:15;4.30;;;2.30;;
26656;SDS011;14279;50.010;8.260;2023-06-05T03:25:41;7.50;;;2.47;;
26656;SDS011;14279;50.010;8.260;2023-06-05T03:28:06;4.17;;;2.40;;
26656;SDS011;14279;50.010;8.260;2023-06-05T03:30:32;4.13;;;2.30;;
26656;SDS011;14279;50.010;8.260;2023-06-05T03:32:57;2.53;;;1.90;;
26656;SDS011;14279;50.010;8.260;2023-06-05T03:35:22;3.53;;;2.50;;
26656;SDS011;14279;50.010;8.260;2023-06-05T03:37:47;7.57;;;2.33;;
26656;SDS011;14279;50.010;8.260;2023-06-05T03:40:13;13.00;;;2.73;;
26656;SDS011;14279;50.010;8.260;2023-06-05T03:42:38;3.60;;;2.43;;
26656;SDS011;14279;50.010;8.260;2023-06-05T03:45:04;8.00;;;2.50;;
26656;SDS011;14279;50.010;8.260;2023-06-05T03:47:29;6.27;;;3.07;;
26656;SDS011;14279;50.010;8.260;2023-06-05T03:49:54;4.83;;;2.50;;
26656;SDS011;14279;50.010;8.260;2023-06-05T03:52:20;4.40;;;2.70;;
26656;SDS011;14279;50.010;8.260;2023-06-05T03:54:49;7.83;;;3.20;;
26656;SDS011;14279;50.010;8.260;2023-06-05T03:57:18;5.90;;;3.03;;
26656;SDS011;14279;50.010;8.260;2023-06-05T03:59:45;6.43;;;2.70;;
26656;SDS011;14279;50.010;8.260;2023-06-05T04:02:11;8.13;;;2.27;;
26656;SDS011;14279;50.010;8.260;2023-06-05T04:04:37;12.97;;;2.90;;
26656;SDS011;14279;50.010;8.260;2023-06-05T04:07:02;8.30;;;2.80;;
26656;SDS011;14279;50.010;8.260;2023-06-05T04:09:27;5.37;;;3.00;;
26656;SDS011;14279;50.010;8.260;2023-06-05T04:11:53;8.80;;;2.07;;
26656;SDS011;14279;50.010;8.260;2023-06-05T04:14:20;7.47;;;3.17;;
26656;SDS011;14279;50.010;8.260;2023-06-05T04:16:45;8.13;;;3.00;;
26656;SDS011;14279;50.010;8.260;2023-06-05T04:19:11;4.33;;;2.60;;
26656;SDS011;14279;50.010;8.260;2023-06-05T04:21:40;4.60;;;2.30;;
26656;SDS011;14279;50.010;8.260;2023-06-05T04:24:06;4.67;;;2.37;;
26656;SDS011;14279;50.010;8.260;2023-06-05T04:26:35;7.80;;;2.90;;
26656;SDS011;14279;50.010;8.260;2023-06-05T04:29:02;6.13;;;2.97;;
26656;SDS011;14279;50.010;8.260;2023-06-05T04:31:30;8.90;;;2.67;;
26656;SDS011;14279;50.010;8.260;2023-06-05T04:33:55;4.20;;;2.70;;
26656;SDS011;14279;50.010;8.260;2023-06-05T04:36:21;7.00;;;3.00;;
26656;SDS011;14279;50.010;8.260;2023-06-05T04:38:47;11.47;;;3.40;;
26656;SDS011;14279;50.010;8.260;2023-06-05T04:41:12;5.40;;;3.30;;
26656;SDS011;14279;50.010;8.260;2023-06-05T04:43:37;7.13;;;2.83;;
26656;SDS011;14279;50.010;8.260;2023-06-05T04:46:02;5.50;;;3.10;;
26656;SDS011;14279;50.010;8.260;2023-06-05T04:48:28;2.60;;;1.90;;
26656;SDS011;14279;50.010;8.260;2023-06-05T04:50:53;10.10;;;2.43;;
26656;SDS011;14279;50.010;8.260;2023-06-05T04:53:21;7.00;;;2.67;;
26656;SDS011;14279;50.010;8.260;2023-06-05T04:55:46;10.30;;;2.80;;
26656;SDS011;14279;50.010;8.260;2023-06-05T04:58:12;5.77;;;2.60;;
26656;SDS011;14279;50.010;8.260;2023-06-05T05:00:38;15.47;;;3.63;;
26656;SDS011;14279;50.010;8.260;2023-06-05T05:03:04;10.33;;;3.30;;
26656;SDS011;14279;50.010;8.260;2023-06-05T05:05:30;9.90;;;3.00;;
26656;SDS011;14279;50.010;8.260;2023-06-05T05:07:55;7.73;;;3.57;;
26656;SDS011;14279;50.010;8.260;2023-06-05T05:10:20;9.13;;;2.60;;
26656;SDS011;14279;50.010;8.260;2023-06-05T05:12:46;5.87;;;3.33;;
26656;SDS011;14279;50.010;8.260;2023-06-05T05:15:11;14.37;;;3.30;;
26656;SDS011;14279;50.010;8.260;2023-06-05T05:17:36;12.83;;;4.17;;
26656;SDS011;14279;50.010;8.260;2023-06-05T05:20:02;11.37;;;3.70;;
26656;SDS011;14279;50.010;8.260;2023-06-05T05:22:29;20.10;;;3.77;;
26656;SDS011;14279;50.010;8.260;2023-06-05T05:24:54;14.50;;;3.50;;
26656;SDS011;14279;50.010;8.260;2023-06-05T05:27:19;11.33;;;3.10;;
26656;SDS011;14279;50.010;8.260;2023-06-05T05:29:45;19.90;;;3.57;;
26656;SDS011;14279;50.010;8.260;2023-06-05T05:32:10;36.73;;;4.30;;
26656;SDS011;14279;50.010;8.260;2023-06-05T05:34:35;15.60;;;3.57;;
26656;SDS011;14279;50.010;8.260;2023-06-05T05:37:01;20.83;;;3.27;;
26656;SDS011;14279;50.010;8.260;2023-06-05T05:39:26;17.10;;;3.37;;
26656;SDS011;14279;50.010;8.260;2023-06-05T05:41:51;23.07;;;3.90;;
26656;SDS011;14279;50.010;8.260;2023-06-05T05:44:16;23.43;;;3.10;;
26656;SDS011;14279;50.010;8.260;2023-06-05T05:46:44;16.33;;;3.13;;
26656;SDS011;14279;50.010;8.260;2023-06-05T05:49:10;7.17;;;2.80;;
26656;SDS011;14279;50.010;8.260;2023-06-05T05:51:36;26.17;;;3.20;;
26656;SDS011;14279;50.010;8.260;2023-06-05T05:54:01;22.47;;;2.97;;
26656;SDS011;14279;50.010;8.260;2023-06-05T05:56:26;13.77;;;3.30;;
26656;SDS011;14279;50.010;8.260;2023-06-05T05:58:51;11.37;;;2.77;;
26656;SDS011;14279;50.010;8.260;2023-06-05T06:01:17;20.57;;;3.20;;
26656;SDS011;14279;50.010;8.260;2023-06-05T06:03:42;10.70;;;2.20;;
26656;SDS011;14279;50.010;8.260;2023-06-05T06:06:08;27.60;;;4.20;;
26656;SDS011;14279;50.010;8.260;2023-06-05T06:08:34;32.40;;;3.87;;
26656;SDS011;14279;50.010;8.260;2023-06-05T06:11:00;13.43;;;3.10;;
26656;SDS011;14279;50.010;8.260;2023-06-05T06:13:25;20.80;;;3.50;;
26656;SDS011;14279;50.010;8.260;2023-06-05T06:15:51;11.30;;;3.00;;
26656;SDS011;14279;50.010;8.260;2023-06-05T06:18:16;20.23;;;2.77;;
26656;SDS011;14279;50.010;8.260;2023-06-05T06:20:41;16.40;;;2.67;;
26656;SDS011;14279;50.010;8.260;2023-06-05T06:23:07;7.60;;;2.73;;
26656;SDS011;14279;50.010;8.260;2023-06-05T06:25:32;24.70;;;2.80;;
26656;SDS011;14279;50.010;8.260;2023-06-05T06:27:58;10.63;;;3.00;;
26656;SDS011;14279;50.010;8.260;2023-06-05T06:30:25;14.03;;;2.27;;
26656;SDS011;14279;50.010;8.260;2023-06-05T06:32:51;18.63;;;2.70;;
26656;SDS011;14279;50.010;8.260;2023-06-05T06:35:16;10.50;;;2.57;;
26656;SDS011;14279;50.010;8.260;2023-06-05T06:37:41;8.23;;;2.50;;
26656;SDS011;14279;50.010;8.260;2023-06-05T06:40:07;5.20;;;2.17;;
26656;SDS011;14279;50.010;8.260;2023-06-05T06:42:36;6.30;;;2.57;;
26656;SDS011;14279;50.010;8.260;2023-06-05T06:45:03;9.40;;;2.70;;
26656;SDS011;14279;50.010;8.260;2023-06-05T06:47:29;12.87;;;2.40;;
26656;SDS011;14279;50.010;8.260;2023-06-05T06:49:55;9.90;;;2.23;;
26656;SDS011;14279;50.010;8.260;2023-06-05T06:52:21;2.87;;;1.90;;
26656;SDS011;14279;50.010;8.260;2023-06-05T06:54:47;3.77;;;2.00;;
26656;SDS011;14279;50.010;8.260;2023-06-05T06:57:12;4.87;;;1.97;;
26656;SDS011;14279;50.010;8.260;2023-06-05T06:59:37;4.70;;;2.03;;
26656;SDS011;14279;50.010;8.260;2023-06-05T07:02:18;4.23;;;2.00;;
26656;SDS011;14279;50.010;8.260;2023-06-05T07:04:46;2.67;;;1.67;;
26656;SDS011;14279;50.010;8.260;2023-06-05T07:07:15;3.07;;;1.83;;
26656;SDS011;14279;50.010;8.260;2023-06-05T07:09:42;9.00;;;1.70;;
26656;SDS011;14279;50.010;8.260;2023-06-05T07:12:09;4.97;;;1.73;;
26656;SDS011;14279;50.010;8.260;2023-06-05T07:14:35;2.37;;;1.63;;
26656;SDS011;14279;50.010;8.260;2023-06-05T07:17:02;1.50;;;1.40;;
26656;SDS011;14279;50.010;8.260;2023-06-05T07:19:27;3.73;;;1.40;;
26656;SDS011;14279;50.010;8.260;2023-06-05T07:21:57;4.13;;;1.77;;
26656;SDS011;14279;50.010;8.260;2023-06-05T07:24:23;4.73;;;1.80;;
26656;SDS011;14279;50.010;8.260;2023-06-05T07:26:50;4.17;;;1.80;;
26656;SDS011;14279;50.010;8.260;2023-06-05T07:29:20;9.40;;;1.80;;
26656;SDS011;14279;50.010;8.260;2023-06-05T07:31:46;3.20;;;1.70;;
26656;SDS011;14279;50.010;8.260;2023-06-05T07:34:12;5.17;;;1.83;;
26656;SDS011;14279;50.010;8.260;2023-06-05T07:36:38;2.10;;;1.73;;
26656;SDS011;14279;50.010;8.260;2023-06-05T07:39:03;3.27;;;1.77;;
26656;SDS011;14279;50.010;8.260;2023-06-05T07:41:29;15.20;;;2.10;;
26656;SDS011;14279;50.010;8.260;2023-06-05T07:43:54;2.73;;;1.67;;
26656;SDS011;14279;50.010;8.260;2023-06-05T07:46:19;2.90;;;1.80;;
26656;SDS011;14279;50.010;8.260;2023-06-05T07:48:44;6.10;;;2.27;;
26656;SDS011;14279;50.010;8.260;2023-06-05T07:51:10;2.30;;;1.80;;
26656;SDS011;14279;50.010;8.260;2023-06-05T07:53:35;3.10;;;2.00;;
26656;SDS011;14279;50.010;8.260;2023-06-05T07:56:01;5.70;;;1.87;;
26656;SDS011;14279;50.010;8.260;2023-06-05T07:58:26;6.33;;;1.97;;
26656;SDS011;14279;50.010;8.260;2023-06-05T08:00:52;5.90;;;2.00;;
26656;SDS011;14279;50.010;8.260;2023-06-05T08:03:18;4.20;;;1.83;;
26656;SDS011;14279;50.010;8.260;2023-06-05T08:05:45;8.40;;;2.30;;
26656;SDS011;14279;50.010;8.260;2023-06-05T08:08:16;4.13;;;1.93;;
26656;SDS011;14279;50.010;8.260;2023-06-05T08:10:43;4.43;;;1.67;;
26656;SDS011;14279;50.010;8.260;2023-06-05T08:13:08;4.70;;;1.83;;
26656;SDS011;14279;50.010;8.260;2023-06-05T08:15:34;4.93;;;1.80;;
26656;SDS011;14279;50.010;8.260;2023-06-05T08:18:00;3.93;;;2.07;;
26656;SDS011;14279;50.010;8.260;2023-06-05T08:20:25;4.73;;;1.70;;
26656;SDS011;14279;50.010;8.260;2023-06-05T08:22:51;2.70;;;1.80;;
26656;SDS011;14279;50.010;8.260;2023-06-05T08:25:16;2.30;;;1.83;;
26656;SDS011;14279;50.010;8.260;2023-06-05T08:27:41;2.27;;;2.03;;
26656;SDS011;14279;50.010;8.260;2023-06-05T08:30:06;4.13;;;2.00;;
26656;SDS011;14279;50.010;8.260;2023-06-05T08:32:33;2.30;;;1.80;;
26656;SDS011;14279;50.010;8.260;2023-06-05T08:34:58;6.33;;;2.00;;
26656;SDS011;14279;50.010;8.260;2023-06-05T08:37:24;8.00;;;1.80;;
26656;SDS011;14279;50.010;8.260;2023-06-05T08:39:49;11.23;;;2.37;;
26656;SDS011;14279;50.010;8.260;2023-06-05T08:42:15;2.80;;;1.73;;
26656;SDS011;14279;50.010;8.260;2023-06-05T08:44:43;3.93;;;2.07;;
26656;SDS011;14279;50.010;8.260;2023-06-05T08:47:12;2.30;;;1.90;;
26656;SDS011;14279;50.010;8.260;2023-06-05T08:49:39;2.77;;;1.80;;
26656;SDS011;14279;50.010;8.260;2023-06-05T08:52:06;3.03;;;2.20;;
26656;SDS011;14279;50.010;8.260;2023-06-05T08:54:37;3.33;;;2.00;;
26656;SDS011;14279;50.010;8.260;2023-06-05T08:57:03;1.77;;;1.63;;
26656;SDS011;14279;50.010;8.260;2023-06-05T08:59:30;2.20;;;1.57;;
26656;SDS011;14279;50.010;8.260;2023-06-05T09:01:56;4.30;;;1.70;;
26656;SDS011;14279;50.010;8.260;2023-06-05T09:04:22;5.33;;;2.07;;
26656;SDS011;14279;50.010;8.260;2023-06-05T09:06:49;4.60;;;1.70;;
26656;SDS011;14279;50.010;8.260;2023-06-05T09:09:17;3.20;;;1.90;;
26656;SDS011;14279;50.010;8.260;2023-06-05T09:11:43;4.97;;;1.97;;
26656;SDS011;14279;50.010;8.260;2023-06-05T09:14:08;4.83;;;2.13;;
26656;SDS011;14279;50.010;8.260;2023-06-05T09:16:40;13.50;;;2.10;;
26656;SDS011;14279;50.010;8.260;2023-06-05T09:19:09;2.90;;;1.80;;
26656;SDS011;14279;50.010;8.260;2023-06-05T09:21:36;4.50;;;2.40;;
26656;SDS011;14279;50.010;8.260;2023-06-05T09:26:48;3.97;;;2.23;;
26656;SDS011;14279;50.010;8.260;2023-06-05T09:31:57;7.90;;;2.50;;
26656;SDS011;14279;50.010;8.260;2023-06-05T09:34:27;10.23;;;2.50;;
26656;SDS011;14279;50.010;8.260;2023-06-05T09:36:55;5.13;;;2.23;;
26656;SDS011;14279;50.010;8.260;2023-06-05T09:39:22;4.80;;;2.37;;
26656;SDS011;14279;50.010;8.260;2023-06-05T09:41:50;2.43;;;2.17;;
26656;SDS011;14279;50.010;8.260;2023-06-05T09:44:17;3.90;;;2.60;;
26656;SDS011;14279;50.010;8.260;2023-06-05T09:49:18;4.23;;;2.07;;
26656;SDS011;14279;50.010;8.260;2023-06-05T09:51:43;2.83;;;2.10;;
26656;SDS011;14279;50.010;8.260;2023-06-05T09:54:10;5.00;;;2.67;;
26656;SDS011;14279;50.010;8.260;2023-06-05T09:56:36;2.73;;;2.03;;
26656;SDS011;14279;50.010;8.260;2023-06-05T09:59:05;2.60;;;2.20;;
26656;SDS011;14279;50.010;8.260;2023-06-05T10:01:31;3.53;;;2.17;;
26656;SDS011;14279;50.010;8.260;2023-06-05T10:04:01;4.43;;;2.20;;
26656;SDS011;14279;50.010;8.260;2023-06-05T10:06:31;2.93;;;2.03;;
26656;SDS011;14279;50.010;8.260;2023-06-05T10:08:57;5.50;;;2.37;;
26656;SDS011;14279;50.010;8.260;2023-06-05T10:11:25;6.33;;;2.57;;
26656;SDS011;14279;50.010;8.260;2023-06-05T10:13:51;2.83;;;2.30;;
26656;SDS011;14279;50.010;8.260;2023-06-05T10:16:17;4.20;;;2.57;;
26656;SDS011;14279;50.010;8.260;2023-06-05T10:18:46;3.97;;;2.00;;
26656;SDS011;14279;50.010;8.260;2023-06-05T10:21:14;5.00;;;2.10;;
26656;SDS011;14279;50.010;8.260;2023-06-05T10:23:43;7.67;;;2.80;;
26656;SDS011;14279;50.010;8.260;2023-06-05T10:26:22;3.80;;;2.30;;
26656;SDS011;14279;50.010;8.260;2023-06-05T10:29:27;4.60;;;2.37;;
26656;SDS011;14279;50.010;8.260;2023-06-05T10:40:51;6.40;;;2.00;;
26656;SDS011;14279;50.010;8.260;2023-06-05T10:43:24;3.17;;;1.90;;
26656;SDS011;14279;50.010;8.260;2023-06-05T10:45:54;6.07;;;2.40;;
26656;SDS011;14279;50.010;8.260;2023-06-05T10:48:20;6.90;;;2.13;;
26656;SDS011;14279;50.010;8.260;2023-06-05T10:50:45;4.90;;;2.00;;
26656;SDS011;14279;50.010;8.260;2023-06-05T10:56:09;3.33;;;2.40;;
26656;SDS011;14279;50.010;8.260;2023-06-05T10:59:18;17.43;;;2.30;;
26656;SDS011;14279;50.010;8.260;2023-06-05T11:05:31;4.40;;;2.10;;
26656;SDS011;14279;50.010;8.260;2023-06-05T11:07:26;2.60;;;1.87;;
26656;SDS011;14279;50.010;8.260;2023-06-05T11:10:13;3.00;;;2.00;;
26656;SDS011;14279;50.010;8.260;2023-06-05T11:15:16;3.07;;;1.93;;
26656;SDS011;14279;50.010;8.260;2023-06-05T11:18:25;2.67;;;1.90;;
26656;SDS011;14279;50.010;8.260;2023-06-05T11:20:51;4.93;;;2.00;;
26656;SDS011;14279;50.010;8.260;2023-06-05T11:23:16;2.53;;;1.90;;
26656;SDS011;14279;50.010;8.260;2023-06-05T11:25:41;4.37;;;2.00;;
26656;SDS011;14279;50.010;8.260;2023-06-05T11:28:07;2.93;;;2.00;;
26656;SDS011;14279;50.010;8.260;2023-06-05T11:30:40;5.10;;;2.27;;
26656;SDS011;14279;50.010;8.260;2023-06-05T11:33:11;2.37;;;1.97;;
26656;SDS011;14279;50.010;8.260;2023-06-05T11:35:37;2.10;;;1.87;;
26656;SDS011;14279;50.010;8.260;2023-06-05T11:38:10;2.40;;;1.50;;
26656;SDS011;14279;50.010;8.260;2023-06-05T11:40:40;4.03;;;2.13;;
26656;SDS011;14279;50.010;8.260;2023-06-05T11:43:07;3.90;;;1.97;;
26656;SDS011;14279;50.010;8.260;2023-06-05T11:45:35;8.90;;;2.23;;
26656;SDS011;14279;50.010;8.260;2023-06-05T11:50:33;3.30;;;2.03;;
26656;SDS011;14279;50.010;8.260;2023-06-05T11:53:05;5.10;;;2.13;;
26656;SDS011;14279;50.010;8.260;2023-06-05T11:55:34;6.20;;;2.33;;
26656;SDS011;14279;50.010;8.260;2023-06-05T11:58:25;3.20;;;2.10;;
26656;SDS011;14279;50.010;8.260;2023-06-05T12:00:51;4.23;;;1.97;;
26656;SDS011;14279;50.010;8.260;2023-06-05T12:03:28;2.30;;;2.10;;
26656;SDS011;14279;50.010;8.260;2023-06-05T12:05:53;4.13;;;2.17;;
26656;SDS011;14279;50.010;8.260;2023-06-05T12:08:25;4.60;;;1.90;;
26656;SDS011;14279;50.010;8.260;2023-06-05T12:10:52;4.40;;;1.83;;
26656;SDS011;14279;50.010;8.260;2023-06-05T12:13:18;5.03;;;1.90;;
26656;SDS011;14279;50.010;8.260;2023-06-05T12:15:55;2.77;;;2.20;;
26656;SDS011;14279;50.010;8.260;2023-06-05T12:18:21;11.17;;;2.67;;
26656;SDS011;14279;50.010;8.260;2023-06-05T12:20:46;8.57;;;2.20;;
26656;SDS011;14279;50.010;8.260;2023-06-05T12:23:17;4.50;;;2.03;;
26656;SDS011;14279;50.010;8.260;2023-06-05T12:25:43;2.10;;;1.90;;
26656;SDS011;14279;50.010;8.260;2023-06-05T12:28:18;2.20;;;2.00;;
26656;SDS011;14279;50.010;8.260;2023-06-05T12:30:44;4.83;;;2.30;;
26656;SDS011;14279;50.010;8.260;2023-06-05T12:33:10;4.40;;;1.90;;
26656;SDS011;14279;50.010;8.260;2023-06-05T12:35:35;3.80;;;1.87;;
26656;SDS011;14279;50.010;8.260;2023-06-05T12:38:00;5.73;;;2.60;;
26656;SDS011;14279;50.010;8.260;2023-06-05T12:40:26;9.50;;;2.00;;
26656;SDS011;14279;50.010;8.260;2023-06-05T12:42:51;3.70;;;2.07;;
26656;SDS011;14279;50.010;8.260;2023-06-05T12:45:16;4.63;;;2.20;;
26656;SDS011;14279;50.010;8.260;2023-06-05T12:47:42;4.73;;;1.80;;
26656;SDS011;14279;50.010;8.260;2023-06-05T12:50:09;2.30;;;2.07;;
26656;SDS011;14279;50.010;8.260;2023-06-05T12:52:39;2.70;;;2.03;;
26656;SDS011;14279;50.010;8.260;2023-06-05T12:55:06;3.13;;;2.27;;
26656;SDS011;14279;50.010;8.260;2023-06-05T12:57:32;5.00;;;2.27;;
26656;SDS011;14279;50.010;8.260;2023-06-05T12:59:57;4.70;;;1.80;;
26656;SDS011;14279;50.010;8.260;2023-06-05T13:02:23;3.07;;;2.07;;
26656;SDS011;14279;50.010;8.260;2023-06-05T13:04:48;6.13;;;2.40;;
26656;SDS011;14279;50.010;8.260;2023-06-05T13:07:14;4.83;;;2.20;;
26656;SDS011;14279;50.010;8.260;2023-06-05T13:09:39;3.70;;;2.03;;
26656;SDS011;14279;50.010;8.260;2023-06-05T13:12:04;4.77;;;1.80;;
26656;SDS011;14279;50.010;8.260;2023-06-05T13:14:30;5.00;;;2.10;;
26656;SDS011;14279;50.010;8.260;2023-06-05T13:16:56;5.10;;;2.10;;
26656;SDS011;14279;50.010;8.260;2023-06-05T13:19:22;2.73;;;2.17;;
26656;SDS011;14279;50.010;8.260;2023-06-05T13:21:48;6.50;;;2.40;;
26656;SDS011;14279;50.010;8.260;2023-06-05T13:24:13;4.80;;;2.07;;
26656;SDS011;14279;50.010;8.260;2023-06-05T13:26:39;2.50;;;2.27;;
26656;SDS011;14279;50.010;8.260;2023-06-05T13:29:06;4.53;;;2.23;;
26656;SDS011;14279;50.010;8.260;2023-06-05T13:31:32;9.03;;;2.50;;
26656;SDS011;14279;50.010;8.260;2023-06-05T13:33:58;2.10;;;1.90;;
26656;SDS011;14279;50.010;8.260;2023-06-05T13:36:23;3.03;;;1.90;;
26656;SDS011;14279;50.010;8.260;2023-06-05T13:38:48;10.93;;;2.30;;
26656;SDS011;14279;50.010;8.260;2023-06-05T13:41:14;5.37;;;2.00;;
26656;SDS011;14279;50.010;8.260;2023-06-05T13:43:39;2.50;;;1.87;;
26656;SDS011;14279;50.010;8.260;2023-06-05T13:46:05;2.97;;;2.20;;
26656;SDS011;14279;50.010;8.260;2023-06-05T13:48:30;3.60;;;2.43;;
26656;SDS011;14279;50.010;8.260;2023-06-05T13:50:55;3.63;;;2.70;;
26656;SDS011;14279;50.010;8.260;2023-06-05T13:53:22;3.60;;;2.43;;
26656;SDS011;14279;50.010;8.260;2023-06-05T13:55:48;4.53;;;2.10;;
26656;SDS011;14279;50.010;8.260;2023-06-05T13:58:13;3.90;;;2.40;;
26656;SDS011;14279;50.010;8.260;2023-06-05T14:00:38;3.97;;;2.20;;
26656;SDS011;14279;50.010;8.260;2023-06-05T14:03:03;2.77;;;2.43;;
26656;SDS011;14279;50.010;8.260;2023-06-05T14:05:29;6.53;;;2.40;;
26656;SDS011;14279;50.010;8.260;2023-06-05T14:07:55;4.80;;;1.70;;
26656;SDS011;14279;50.010;8.260;2023-06-05T14:10:22;5.47;;;2.70;;
26656;SDS011;14279;50.010;8.260;2023-06-05T14:12:49;2.23;;;1.80;;
26656;SDS011;14279;50.010;8.260;2023-06-05T14:15:15;2.33;;;2.10;;
26656;SDS011;14279;50.010;8.260;2023-06-05T14:17:42;10.77;;;2.27;;
26656;SDS011;14279;50.010;8.260;2023-06-05T14:20:08;4.90;;;1.87;;
26656;SDS011;14279;50.010;8.260;2023-06-05T14:22:33;3.83;;;2.50;;
26656;SDS011;14279;50.010;8.260;2023-06-05T14:24:59;4.27;;;2.17;;
26656;SDS011;14279;50.010;8.260;2023-06-05T14:27:24;4.23;;;2.30;;
26656;SDS011;14279;50.010;8.260;2023-06-05T14:29:50;3.00;;;1.77;;
26656;SDS011;14279;50.010;8.260;2023-06-05T14:32:15;3.07;;;2.00;;
26656;SDS011;14279;50.010;8.260;2023-06-05T14:34:40;3.87;;;2.20;;
26656;SDS011;14279;50.010;8.260;2023-06-05T14:37:05;6.23;;;1.70;;
26656;SDS011;14279;50.010;8.260;2023-06-05T14:39:31;4.20;;;1.80;;
26656;SDS011;14279;50.010;8.260;2023-06-05T14:41:56;2.17;;;1.80;;
26656;SDS011;14279;50.010;8.260;2023-06-05T14:44:21;2.10;;;2.00;;
26656;SDS011;14279;50.010;8.260;2023-06-05T14:46:46;6.03;;;2.60;;
26656;SDS011;14279;50.010;8.260;2023-06-05T14:49:12;7.93;;;2.50;;
26656;SDS011;14279;50.010;8.260;2023-06-05T14:51:38;7.17;;;2.20;;
26656;SDS011;14279;50.010;8.260;2023-06-05T14:54:03;5.07;;;2.07;;
26656;SDS011;14279;50.010;8.260;2023-06-05T14:56:29;5.37;;;2.40;;
26656;SDS011;14279;50.010;8.260;2023-06-05T14:58:54;3.93;;;2.20;;
26656;SDS011;14279;50.010;8.260;2023-06-05T15:01:19;2.43;;;2.10;;
26656;SDS011;14279;50.010;8.260;2023-06-05T15:03:45;8.10;;;2.70;;
26656;SDS011;14279;50.010;8.260;2023-06-05T15:06:10;4.37;;;1.90;;
26656;SDS011;14279;50.010;8.260;2023-06-05T15:08:36;3.17;;;2.00;;
26656;SDS011;14279;50.010;8.260;2023-06-05T15:11:01;2.57;;;1.97;;
26656;SDS011;14279;50.010;8.260;2023-06-05T15:13:26;3.13;;;1.63;;
26656;SDS011;14279;50.010;8.260;2023-06-05T15:15:51;4.43;;;2.03;;